Terminal Aerodrome Forecast
Issued by NWS

Home | Current Version | Previous Version | Text Only | Print | Product List | Glossary On
Versions: 1 2 3 4 5 6 7 8 9 10 11 12 13 14 15
000
FTUS46 KSTO 281100
TAFMHR
TAF
KMHR 281120Z 2812/2912 VRB04KT P6SM SCT200
     FM282000 23009KT P6SM BKN200
     FM290500 15005KT P6SM OVC150=

USA.gov is the U.S. government's official web portal to all federal, state and local government web resources and services.